Aérodrome :
LOGIN :

S'inscrire | Disclaimer

   EN    FR    IT 

 










Légende :    VFR   VFR Marginal   IFR   IFR Intensif   IFR Très Intensif
Visi : 
Plafond : 
>= 8 km
>= 3000ft
5 à 8 km
1000 à 3000 ft
1500m à 5 km
500 à 1000 ft
800 à 1500m
200 à 500 ft
< 800m
< 200 ft
Symboles :   Orages  Brouillard  Fortes neiges  Fortes précipitations  Vent > 20 kt
SIGMETs :   Divers  Orages  Givrage  Turbulence  Onde Orograph.  Cendres Volcan.






- Altitude de l'aérodrome : 364 ft
- Code IATA : FRA


EDDF - Frankfurt Int.

DERNIER METAR :
  • 041050Z 31007KT 270V350 CAVOK 22/08 Q1016 NOSIG

METARs EXPIRÉS :
  • 041020Z 32005KT 230V040 CAVOK 22/08 Q1015 NOSIG
  • 040950Z VRB07KT CAVOK 22/08 Q1015 NOSIG
  • 040920Z 01007KT 330V040 CAVOK 23/09 Q1015 NOSIG
  • 040850Z 36007KT 320V030 9999 FEW048 21/08 Q1015 NOSIG
  • 040820Z 36008KT 9999 FEW044 20/09 Q1015 NOSIG

TAF TAF EDDF
Valide du 04 à 06h jusqu'au 05 à 12h UTC


040500Z 0406/0512 01008KT CAVOK
BECMG 0419/0421 03003KT



MET'MAP, la Météo Aéronautique d'un coup d'oeil ! - Copyright ORBIFLY Décembre 2007 - Disclaimer

ORBIFLY MET'MAP TEAM :

Programmation & Développement : Alexandra Zaïnal
Sur une idée originale de : Baudouin d'Aumeries
Assistance à la programmation : Marc-Olivier Méhu
Soutien technique & logistique : Manuel Goepfert

Contact : metmap@orbifly.com




SOURCES & CREDITS :

   NOAA